LFRK METAR and TAF | Updated Today

LFRK METAR

Caen-Carpiquet Airport

Observation time: 19 min. ago

LFRK 051930Z AUTO 02005KT 350V050 CAVOK 06/03 Q1044 NOSIG

Need help? Read our tutorial on how to read METARs or read the parsed version below.

Caen-Carpiquet Airport (LFRK) METAR

  • Weather conditions on Sun, 05 Feb 2023 19:30:00 +0000 (19 min. ago):
  • Present conditions: Dry
  • Clouds: Clear skies
  • Visibility: Greater than 10 km
  • Wind: 20 degrees at 5 knots
  • Temperature: 6 celsius
  • Dew point: 3 celsius
  • Pressure: 1044 millibars
  • Remarks: None


Useful to know...

LFRK TAF

Caen-Carpiquet Airport

TAF LFRK 051400Z 0515/0524 04010KT 9999 SCT020
Observation time: 5:49 hr. ago
Need help? Read our tutorial on how to read TAFs or read the parsed version below.

Parsed version of TAF for Caen-Carpiquet Airport (LFRK)

  • From 05 February at 15:00 UTC, to day 05 of the month at 24:00 UTC
  • Clouds: Scattered at 610 meters
  • Visibility: Greater than 10 km
  • Wind: 40 degrees at 10